createdAt,value
2023-01-27T00:01:05.922Z,38.50
2023-01-27T00:03:34.564Z,38.40
2023-01-27T00:10:38.152Z,35.80
2023-01-27T00:13:25.311Z,34.30
2023-01-27T00:15:53.498Z,35.30
2023-01-27T00:18:21.620Z,37.60
2023-01-27T00:21:07.954Z,32.50
2023-01-27T00:23:55.035Z,27.40
2023-01-27T00:26:23.086Z,26.70
2023-01-27T00:28:51.084Z,26.20
2023-01-27T00:31:39.513Z,23.50
2023-01-27T00:34:11.063Z,25.90
2023-01-27T00:36:41.458Z,31.30
2023-01-27T00:39:10.458Z,28.40
2023-01-27T00:41:39.297Z,26.10
2023-01-27T00:44:12.769Z,26.20
2023-01-27T00:49:13.544Z,22.00
2023-01-27T00:51:42.281Z,26.30
2023-01-27T00:54:11.260Z,24.50
2023-01-27T00:56:41.785Z,25.30
2023-01-27T00:59:13.746Z,23.70
2023-01-27T01:01:44.714Z,23.20
2023-01-27T01:04:13.458Z,22.70
2023-01-27T01:06:42.564Z,24.00
2023-01-27T01:09:11.835Z,24.20
2023-01-27T01:11:41.065Z,22.70
2023-01-27T01:14:10.717Z,24.00
2023-01-27T01:16:39.034Z,24.30
2023-01-27T01:19:08.075Z,24.30
2023-01-27T01:21:38.377Z,23.30
2023-01-27T01:28:50.384Z,20.80
2023-01-27T01:31:19.777Z,20.70
2023-01-27T01:33:48.184Z,20.40
2023-01-27T01:36:19.430Z,22.20
2023-01-27T01:38:48.448Z,21.00
2023-01-27T01:41:20.600Z,22.70
2023-01-27T01:43:49.534Z,22.00
2023-01-27T01:46:18.321Z,22.50
2023-01-27T01:49:00.800Z,19.70
2023-01-27T01:51:39.917Z,23.50
2023-01-27T01:54:17.001Z,21.10
2023-01-27T01:56:52.591Z,20.10
2023-01-27T01:59:28.643Z,23.50
2023-01-27T02:01:58.288Z,20.20
2023-01-27T02:04:28.498Z,20.20
2023-01-27T02:07:45.029Z,22.30
2023-01-27T02:10:13.881Z,22.30
2023-01-27T02:12:42.312Z,22.40
2023-01-27T02:15:12.407Z,19.50
2023-01-27T02:17:40.965Z,21.80
2023-01-27T02:20:16.229Z,22.70
2023-01-27T02:22:48.297Z,25.00
2023-01-27T02:25:37.103Z,23.20
2023-01-27T02:28:08.061Z,24.00
2023-01-27T02:30:36.237Z,23.50
2023-01-27T02:33:14.902Z,23.60
2023-01-27T02:35:54.261Z,25.10
2023-01-27T02:38:22.339Z,29.20
2023-01-27T02:40:52.204Z,25.50
2023-01-27T02:43:20.424Z,26.30
2023-01-27T02:45:48.514Z,24.90
2023-01-27T02:48:17.317Z,23.10
2023-01-27T02:50:48.073Z,22.00
2023-01-27T02:53:16.605Z,21.60
2023-01-27T02:55:45.593Z,21.90
2023-01-27T02:58:16.498Z,24.60
2023-01-27T03:00:50.350Z,23.70
2023-01-27T03:03:20.231Z,26.80
2023-01-27T03:05:51.533Z,23.40
2023-01-27T03:08:21.767Z,28.70
2023-01-27T03:10:53.245Z,25.80
2023-01-27T03:13:26.255Z,27.30
2023-01-27T03:16:18.734Z,26.90
2023-01-27T03:18:50.250Z,27.80
2023-01-27T03:21:22.251Z,27.70
2023-01-27T03:23:53.624Z,30.20
2023-01-27T03:26:26.266Z,23.60
2023-01-27T03:29:17.890Z,23.00
2023-01-27T03:31:48.389Z,22.10
2023-01-27T03:34:19.288Z,21.90
2023-01-27T03:37:20.958Z,21.40
2023-01-27T03:40:09.611Z,21.80
2023-01-27T03:42:58.903Z,24.70
2023-01-27T03:45:48.807Z,24.30
2023-01-27T03:48:22.325Z,25.30
2023-01-27T03:50:53.616Z,24.10
2023-01-27T03:53:23.639Z,28.00
2023-01-27T03:55:53.944Z,27.10
2023-01-27T03:58:27.342Z,28.20
2023-01-27T04:09:30.907Z,24.10
2023-01-27T04:12:04.552Z,24.40
2023-01-27T04:14:37.871Z,24.40
2023-01-27T04:17:10.955Z,26.40
2023-01-27T04:19:39.058Z,27.90
2023-01-27T04:22:07.465Z,28.40
2023-01-27T04:24:38.979Z,25.90
2023-01-27T04:27:09.159Z,25.70
2023-01-27T04:29:40.607Z,28.20
2023-01-27T04:32:12.876Z,27.40
2023-01-27T04:34:41.122Z,25.90
2023-01-27T04:37:09.377Z,27.30
2023-01-27T04:39:41.923Z,30.70
2023-01-27T04:42:10.349Z,27.90
2023-01-27T04:44:38.354Z,28.60
2023-01-27T04:47:06.789Z,26.10
2023-01-27T04:49:36.073Z,25.80
2023-01-27T04:52:04.901Z,22.40
2023-01-27T04:54:32.867Z,25.60
2023-01-27T04:57:05.748Z,26.50
2023-01-27T04:59:34.128Z,23.60
2023-01-27T05:02:04.671Z,21.90
2023-01-27T05:07:04.496Z,24.80
2023-01-27T05:09:32.826Z,29.10
2023-01-27T05:12:00.767Z,25.10
2023-01-27T05:14:29.093Z,21.80
2023-01-27T05:16:57.156Z,23.00
2023-01-27T05:19:25.763Z,25.80
2023-01-27T05:21:53.833Z,25.60
2023-01-27T05:24:22.624Z,21.40
2023-01-27T05:26:53.579Z,24.70
2023-01-27T05:29:21.948Z,22.30
2023-01-27T05:31:50.159Z,23.30
2023-01-27T05:34:18.759Z,24.90
2023-01-27T05:36:46.970Z,23.80
2023-01-27T05:39:16.496Z,21.60
2023-01-27T05:41:44.685Z,25.60
2023-01-27T05:44:13.175Z,24.80
2023-01-27T05:46:41.627Z,23.30
2023-01-27T05:49:09.725Z,23.50
2023-01-27T05:51:39.959Z,24.00
2023-01-27T05:54:08.800Z,22.70
2023-01-27T05:56:37.084Z,22.90
2023-01-27T05:59:06.164Z,23.70
2023-01-27T06:01:35.017Z,23.60
2023-01-27T06:04:03.436Z,27.60
2023-01-27T06:06:34.356Z,21.20
2023-01-27T06:09:02.907Z,21.10
2023-01-27T06:11:30.969Z,21.70
2023-01-27T08:13:17.738Z,27.20
2023-01-27T08:15:46.691Z,28.90
2023-01-27T08:18:14.715Z,28.00
2023-01-27T08:20:45.713Z,26.30
2023-01-27T08:23:14.325Z,29.80
2023-01-27T08:25:42.410Z,29.20
2023-01-27T08:28:10.434Z,32.00
2023-01-27T08:30:39.495Z,32.80
2023-01-27T08:33:07.595Z,33.70
2023-01-27T08:35:37.221Z,31.60
2023-01-27T08:38:05.738Z,33.60
2023-01-27T08:40:33.936Z,34.00
2023-01-27T08:43:04.680Z,35.50
2023-01-27T08:45:33.313Z,33.20
2023-01-27T08:48:01.532Z,31.90
2023-01-27T08:50:30.497Z,27.10
2023-01-27T08:53:01.789Z,26.50
2023-01-27T08:55:32.860Z,27.30
2023-01-27T08:58:00.997Z,27.30
2023-01-27T09:00:29.484Z,26.70
2023-01-27T09:02:57.485Z,24.30
2023-01-27T09:05:26.374Z,24.50
2023-01-27T09:07:54.895Z,25.00
2023-01-27T09:10:23.224Z,23.90
2023-01-27T09:12:51.618Z,26.80
2023-01-27T09:15:19.806Z,27.90
2023-01-27T09:17:48.579Z,24.80
2023-01-27T09:20:16.918Z,28.10
2023-01-27T09:22:45.499Z,23.60
2023-01-27T09:25:17.418Z,22.50
2023-01-27T09:27:45.491Z,22.60
2023-01-27T09:30:14.990Z,21.80
2023-01-27T09:32:43.252Z,21.70
2023-01-27T09:35:11.817Z,21.80
2023-01-27T09:37:47.467Z,22.60
2023-01-27T09:40:44.076Z,21.60
2023-01-27T09:43:43.452Z,22.30
2023-01-27T09:46:14.879Z,21.00
2023-01-27T09:48:46.126Z,25.10
2023-01-27T09:51:28.292Z,23.10
2023-01-27T09:54:06.691Z,23.70
2023-01-27T09:56:53.609Z,23.00
2023-01-27T09:59:33.624Z,25.80
2023-01-27T10:02:08.077Z,25.80
2023-01-27T10:04:46.754Z,27.00
2023-01-27T10:07:24.317Z,23.20
2023-01-27T10:10:17.685Z,24.10
2023-01-27T10:12:52.921Z,24.80
2023-01-27T10:15:50.272Z,22.30
2023-01-27T10:18:24.261Z,21.70
2023-01-27T10:21:14.084Z,21.40
2023-01-27T10:24:02.436Z,21.50
2023-01-27T10:26:49.642Z,20.80
2023-01-27T10:29:26.454Z,24.80
2023-01-27T10:32:22.813Z,23.00
2023-01-27T10:35:20.906Z,19.80
2023-01-27T10:38:05.013Z,21.80
2023-01-27T10:40:36.138Z,18.20
2023-01-27T10:43:25.277Z,18.80
2023-01-27T10:45:58.664Z,22.60
2023-01-27T10:48:36.147Z,24.50
2023-01-27T10:51:23.061Z,24.80
2023-01-27T10:54:16.287Z,23.20
2023-01-27T10:56:47.840Z,24.30
2023-01-27T10:59:38.154Z,24.70
2023-01-27T11:02:09.774Z,24.70
2023-01-27T11:04:41.218Z,23.20
2023-01-27T11:07:19.630Z,22.40
2023-01-27T11:09:59.312Z,24.10
2023-01-27T11:12:33.141Z,21.10
2023-01-27T11:15:02.855Z,22.20
2023-01-27T11:17:42.806Z,22.30
2023-01-27T11:20:37.162Z,22.10
2023-01-27T11:23:26.842Z,22.90
2023-01-27T11:25:56.978Z,23.70
2023-01-27T11:28:50.211Z,24.50
2023-01-27T11:31:37.524Z,24.00
2023-01-27T11:34:11.059Z,22.00
2023-01-27T11:36:39.012Z,27.30
2023-01-27T11:39:08.842Z,26.30
2023-01-27T11:41:41.800Z,28.30
2023-01-27T11:44:24.627Z,27.20
2023-01-27T11:46:53.335Z,28.40
2023-01-27T11:49:32.170Z,26.70
2023-01-27T11:52:13.558Z,28.90
2023-01-27T11:54:56.721Z,26.80
2023-01-27T11:57:27.506Z,27.20
2023-01-27T12:00:01.860Z,29.90
2023-01-27T14:13:22.023Z,31.60
2023-01-27T14:15:54.172Z,34.00
2023-01-27T14:18:26.198Z,27.90
2023-01-27T14:21:41.553Z,28.90
2023-01-27T14:24:28.936Z,24.80
2023-01-27T14:29:33.095Z,28.80
2023-01-27T14:32:31.177Z,27.00
2023-01-27T14:35:35.742Z,25.40
2023-01-27T14:38:20.924Z,27.00
2023-01-27T14:41:09.693Z,27.40
2023-01-27T14:43:56.814Z,29.10
2023-01-27T14:47:03.053Z,27.60
2023-01-27T14:50:03.717Z,25.60
2023-01-27T14:52:41.341Z,29.80
2023-01-27T14:55:33.132Z,28.70
2023-01-27T14:58:19.774Z,28.60
2023-01-27T15:01:05.624Z,29.40
2023-01-27T15:04:04.604Z,29.90
2023-01-27T15:06:40.095Z,28.90
2023-01-27T15:09:10.290Z,28.40
2023-01-27T15:11:50.217Z,28.50
2023-01-27T15:14:35.625Z,26.90
2023-01-27T15:17:33.896Z,28.40
2023-01-27T15:20:38.666Z,30.00
2023-01-27T15:23:17.890Z,28.60
2023-01-27T15:25:47.589Z,28.00
2023-01-27T15:28:15.650Z,25.70
2023-01-27T15:31:14.243Z,27.20
2023-01-27T15:33:44.873Z,25.90
2023-01-27T15:36:27.112Z,27.60
2023-01-27T15:39:09.319Z,28.40
2023-01-27T15:41:36.268Z,26.40
2023-01-27T15:44:25.051Z,29.80
2023-01-27T15:46:53.100Z,29.30
2023-01-27T15:49:27.560Z,26.40
2023-01-27T15:51:56.251Z,26.80
2023-01-27T15:54:31.396Z,28.40
2023-01-27T15:56:59.898Z,27.90
2023-01-27T15:59:29.961Z,29.30
2023-01-27T16:02:11.494Z,26.10
2023-01-27T16:04:39.420Z,29.20
2023-01-27T16:07:06.699Z,28.00
2023-01-27T16:09:40.175Z,29.00
2023-01-27T16:15:34.567Z,28.60
2023-01-27T16:18:07.540Z,30.10
2023-01-27T16:20:52.978Z,26.90
2023-01-27T16:23:41.166Z,27.00
2023-01-27T16:26:19.956Z,27.70
2023-01-27T16:28:48.432Z,25.90
2023-01-27T16:31:20.473Z,24.10
2023-01-27T16:33:47.797Z,25.30
2023-01-27T16:36:26.794Z,27.80
2023-01-27T16:38:54.597Z,28.90
2023-01-27T16:41:29.313Z,25.10
2023-01-27T16:44:03.758Z,25.80
2023-01-27T16:46:42.030Z,28.50
2023-01-27T16:49:18.158Z,25.30
2023-01-27T16:51:45.407Z,25.00
2023-01-27T16:54:21.633Z,28.00
2023-01-27T16:56:51.731Z,27.20
2023-01-27T16:59:24.108Z,28.40
2023-01-27T17:01:51.920Z,27.80
2023-01-27T17:04:26.214Z,25.90
2023-01-27T17:06:56.325Z,28.40
2023-01-27T17:09:25.131Z,24.60
2023-01-27T17:11:53.487Z,28.00
2023-01-27T17:14:30.511Z,29.10
2023-01-27T17:17:00.550Z,24.40
2023-01-27T17:19:29.481Z,25.00
2023-01-27T17:22:00.418Z,26.10
2023-01-27T17:24:32.386Z,24.30
2023-01-27T17:27:05.721Z,23.80
2023-01-27T17:29:40.477Z,22.10
2023-01-27T17:32:27.452Z,20.90
2023-01-27T17:34:59.747Z,21.10
2023-01-27T17:37:29.449Z,27.90
2023-01-27T17:40:00.975Z,23.10
2023-01-27T17:42:29.857Z,20.80
2023-01-27T17:45:23.523Z,22.40
2023-01-27T17:47:50.321Z,22.10
2023-01-27T17:50:21.587Z,22.10
2023-01-27T17:52:52.389Z,23.80
2023-01-27T17:55:21.383Z,21.70
2023-01-27T17:57:53.794Z,23.20
2023-01-27T18:00:25.215Z,23.60
2023-01-27T18:03:17.307Z,22.80
2023-01-27T18:05:44.769Z,26.20
2023-01-27T18:08:11.796Z,24.50
2023-01-27T20:14:49.818Z,29.30
2023-01-27T20:17:17.118Z,26.60
2023-01-27T20:19:43.891Z,30.30
2023-01-27T20:22:12.307Z,25.20
2023-01-27T20:24:39.669Z,26.10
2023-01-27T20:27:06.655Z,26.70
2023-01-27T20:29:35.002Z,26.30
2023-01-27T20:32:01.764Z,27.40
2023-01-27T20:34:28.720Z,27.90
2023-01-27T20:36:56.448Z,22.70
2023-01-27T20:39:23.561Z,23.70
2023-01-27T20:41:50.901Z,29.50
2023-01-27T20:44:17.863Z,25.80
2023-01-27T20:46:45.139Z,26.50
2023-01-27T20:49:11.837Z,26.20
2023-01-27T20:51:38.828Z,26.00
2023-01-27T20:54:05.877Z,23.80
2023-01-27T20:56:32.698Z,29.50
2023-01-27T20:59:01.010Z,27.60
2023-01-27T21:01:27.935Z,25.60
2023-01-27T21:03:54.807Z,24.80
2023-01-27T21:06:22.837Z,24.10
2023-01-27T21:08:49.783Z,25.40
2023-01-27T21:11:18.191Z,24.00
2023-01-27T21:13:45.707Z,23.30
2023-01-27T21:16:12.736Z,25.30
2023-01-27T21:18:40.428Z,28.60
2023-01-27T21:21:07.396Z,25.10
2023-01-27T21:23:34.808Z,23.30
2023-01-27T21:26:08.565Z,24.00
2023-01-27T21:28:36.048Z,23.70
2023-01-27T21:31:07.323Z,24.90
2023-01-27T21:33:38.478Z,24.00
2023-01-27T21:36:10.557Z,23.70
2023-01-27T21:38:38.294Z,25.50
2023-01-27T21:41:37.279Z,23.50
2023-01-27T21:44:23.289Z,24.30
2023-01-27T21:46:50.404Z,24.80
2023-01-27T21:49:17.360Z,23.10
2023-01-27T21:51:44.309Z,26.90
2023-01-27T21:54:11.404Z,27.60
2023-01-27T21:56:38.187Z,24.30
2023-01-27T21:59:04.807Z,25.30
2023-01-27T22:01:33.614Z,23.30
2023-01-27T22:04:00.680Z,24.20
2023-01-27T22:06:30.816Z,24.10
2023-01-27T22:08:57.657Z,23.90
2023-01-27T22:11:24.542Z,23.90
2023-01-27T22:13:52.165Z,24.10
2023-01-27T22:16:19.662Z,22.30
2023-01-27T22:18:46.584Z,23.00
2023-01-27T22:21:13.185Z,25.00
2023-01-27T22:23:40.007Z,23.90
2023-01-27T22:26:08.628Z,27.80
2023-01-27T22:28:35.378Z,24.00
2023-01-27T22:31:02.147Z,24.50
2023-01-27T22:33:31.809Z,26.10
2023-01-27T22:36:00.185Z,25.90
2023-01-27T22:38:26.826Z,26.40
2023-01-27T22:40:57.399Z,29.90
2023-01-27T22:43:24.086Z,25.00
2023-01-27T22:45:51.560Z,25.80
2023-01-27T22:48:18.624Z,23.40
2023-01-27T22:50:45.258Z,22.00
2023-01-27T22:53:12.311Z,24.40
2023-01-27T22:55:39.061Z,24.60
2023-01-27T22:58:05.833Z,22.30
2023-01-27T23:00:32.417Z,24.10
2023-01-27T23:03:00.379Z,21.60
2023-01-27T23:05:27.157Z,22.10
2023-01-27T23:07:53.728Z,23.70
2023-01-27T23:10:21.038Z,25.70
2023-01-27T23:12:50.051Z,23.80
2023-01-27T23:15:17.019Z,26.60
2023-01-27T23:17:44.076Z,23.70
2023-01-27T23:20:11.483Z,22.90
2023-01-27T23:22:38.970Z,23.90
2023-01-27T23:25:06.198Z,24.80
2023-01-27T23:27:33.548Z,23.30
2023-01-27T23:30:00.719Z,24.60
2023-01-27T23:32:27.544Z,24.00
2023-01-27T23:34:54.156Z,25.00
2023-01-27T23:37:21.158Z,23.70
2023-01-27T23:39:53.721Z,23.20
2023-01-27T23:42:21.797Z,23.60
2023-01-27T23:44:49.654Z,23.90
2023-01-27T23:47:17.382Z,23.20
2023-01-27T23:49:45.775Z,21.30
2023-01-27T23:52:12.649Z,24.40
2023-01-27T23:54:39.274Z,23.80
2023-01-27T23:57:07.522Z,27.40
2023-01-27T23:59:34.941Z,23.50
